< < Back
Terminal Aerodrome Forecast


Current Version              Previous Versions:   1  2  3  4  5  6  7  8  9  

Terminal Aerodrome Forecast

642
FTUS44 KMRX 062320
TAFCHA
TAF
KCHA 062320Z 0700/0724 24005KT P6SM FEW045
     FM070400 00000KT P6SM SCT250
     FM070900 00000KT 3SM BR SCT015
     FM071300 20004KT P6SM FEW030 SCT080
     FM071800 23005KT P6SM SCT045=

Latest METAR

636
SAUS80 KWBC 071300
MTRCHA
METAR KCHA 071253Z 20005KT 10SM SCT060 25/22 A3015 RMK AO2 SLP201
T02500217


USA.gov is the U.S. government's official web portal to all federal, state and local government web resources and services.